Amis Wisdom 3 — 3FPE4 — position and weather

sailwx.info

Track history (hours):
 
Tides and Currents Weather Stations Pressure Air Temp Water Temp Dewpoint Dewpoint Depression Visibility Wind Speed Wind Dir Waves Ship Positions

Amis Wisdom 3

Last reported at 2018-Feb-20 05:52 UTC. Time now 2018-Feb-22 19:15 UTC.
Position N 25°08' E 122°36'.

Length 199 m; draft 12.9 m.

Type: Cargo ship. MMSI: 351638000.

Date/timePositionNaut miles runAvg speedWind from/ knotsBaromVisibWave heightAir tempDewpointWater temp
2018-Feb-20 05:52N 25°08' E 122°36'411.7
2018-Feb-20 05:30N 25°04' E 122°35'611.8
2018-Feb-20 05:00N 24°58' E 122°33'612.1
2018-Feb-20 04:30N 24°52' E 122°31'612.3
2018-Feb-20 04:01N 24°46' E 122°29'612.7
2018-Feb-20 03:30N 24°40' E 122°27'611.9
2018-Feb-20 03:00N 24°35' E 122°25'612.3
2018-Feb-20 02:30N 24°29' E 122°23'612.2
2018-Feb-20 02:00N 24°23' E 122°21'611.7
2018-Feb-20 01:30N 24°17' E 122°19'611.5
2018-Feb-20 01:00N 24°12' E 122°18'611.6
2018-Feb-20 00:30N 24°06' E 122°16'611.8
2018-Feb-20 00:00N 24°01' E 122°14'6812.4
2018-Feb-19 18:30N 22°57' E 121°46'610.7
2018-Feb-19 17:57N 22°51' E 121°44'1711.0
2018-Feb-19 16:22N 22°35' E 121°37'611.1
2018-Feb-19 15:52N 22°30' E 121°35'411.1
2018-Feb-19 15:28N 22°26' E 121°33'1211.7
2018-Feb-19 14:27N 22°15' E 121°28'1512.0
2018-Feb-19 13:11N 22°01' E 121°22'510.5
2018-Feb-19 12:43N 21°56' E 121°20'  
2018-Feb-12 23:44N 01°16' E 104°07'2 8.9
2018-Feb-12 23:28N 01°15' E 104°04'5 5.3
2018-Feb-12 22:28N 01°17' E 103°59'0 0.3
2018-Feb-12 21:45N 01°17' E 103°59'0 0.1
2018-Feb-12 21:15N 01°17' E 103°59'0 0.0
2018-Feb-12 12:24N 01°17' E 103°59'0 0.0
2018-Feb-12 11:45N 01°17' E 103°59'0 0.3
2018-Feb-12 11:28N 01°17' E 103°59'2 3.3
2018-Feb-12 10:59N 01°16' E 103°58'3 5.2
2018-Feb-12 10:30N 01°14' E 103°57'3 5.6
2018-Feb-12 10:00N 01°13' E 103°54'5 9.4
2018-Feb-12 09:30N 01°11' E 103°50'611.0
2018-Feb-12 08:59N 01°07' E 103°45'510.9
2018-Feb-12 08:30N 01°04' E 103°41'5 9.4
2018-Feb-12 07:59N 01°04' E 103°36'5 9.7
2018-Feb-12 07:30N 01°07' E 103°32'5 9.7
2018-Feb-12 07:00N 01°09' E 103°28'5 9.8
2018-Feb-12 06:28N 01°12' E 103°24'  
Track history (hours):
 
Tides and Currents Weather Stations Pressure Air Temp Water Temp Dewpoint Dewpoint Depression Visibility Wind Speed Wind Dir Waves Ship Positions

Amis Wisdom 3

Last reported at 2018-Feb-20 05:52 UTC. Time now 2018-Feb-22 19:15 UTC.
Position N 25°08' E 122°36'.

Length 199 m; draft 12.9 m.

Type: Cargo ship. MMSI: 351638000.

Date/timePositionNaut miles runAvg speedWind from/ knotsBaromVisibWave heightAir tempDewpointWater temp
2018-Feb-20 05:52N 25°08' E 122°36'411.7
2018-Feb-20 05:30N 25°04' E 122°35'611.8
2018-Feb-20 05:00N 24°58' E 122°33'612.1
2018-Feb-20 04:30N 24°52' E 122°31'612.3
2018-Feb-20 04:01N 24°46' E 122°29'612.7
2018-Feb-20 03:30N 24°40' E 122°27'611.9
2018-Feb-20 03:00N 24°35' E 122°25'612.3
2018-Feb-20 02:30N 24°29' E 122°23'612.2
2018-Feb-20 02:00N 24°23' E 122°21'611.7
2018-Feb-20 01:30N 24°17' E 122°19'611.5
2018-Feb-20 01:00N 24°12' E 122°18'611.6
2018-Feb-20 00:30N 24°06' E 122°16'611.8
2018-Feb-20 00:00N 24°01' E 122°14'6812.4
2018-Feb-19 18:30N 22°57' E 121°46'610.7
2018-Feb-19 17:57N 22°51' E 121°44'1711.0
2018-Feb-19 16:22N 22°35' E 121°37'611.1
2018-Feb-19 15:52N 22°30' E 121°35'411.1
2018-Feb-19 15:28N 22°26' E 121°33'1211.7
2018-Feb-19 14:27N 22°15' E 121°28'1512.0
2018-Feb-19 13:11N 22°01' E 121°22'510.5
2018-Feb-19 12:43N 21°56' E 121°20'  
2018-Feb-12 23:44N 01°16' E 104°07'2 8.9
2018-Feb-12 23:28N 01°15' E 104°04'5 5.3
2018-Feb-12 22:28N 01°17' E 103°59'0 0.3
2018-Feb-12 21:45N 01°17' E 103°59'0 0.1
2018-Feb-12 21:15N 01°17' E 103°59'0 0.0
2018-Feb-12 12:24N 01°17' E 103°59'0 0.0
2018-Feb-12 11:45N 01°17' E 103°59'0 0.3
2018-Feb-12 11:28N 01°17' E 103°59'2 3.3
2018-Feb-12 10:59N 01°16' E 103°58'3 5.2
2018-Feb-12 10:30N 01°14' E 103°57'3 5.6
2018-Feb-12 10:00N 01°13' E 103°54'5 9.4
2018-Feb-12 09:30N 01°11' E 103°50'611.0
2018-Feb-12 08:59N 01°07' E 103°45'510.9
2018-Feb-12 08:30N 01°04' E 103°41'5 9.4
2018-Feb-12 07:59N 01°04' E 103°36'5 9.7
2018-Feb-12 07:30N 01°07' E 103°32'5 9.7
2018-Feb-12 07:00N 01°09' E 103°28'5 9.8
2018-Feb-12 06:28N 01°12' E 103°24'  

Dump ship's entire track history